logo
Search for airport 
image banner adimage banner adimage banner ad
image banner ad

LOKR - St. Donat-Mairist

Located in District Sankt Veit An Der Glan, Austria

ICAO - , IATA -

Data provided by Airmate  

General information

Coordinates: N46°44'36" E14°24'49"
Elevation is 1752 feet MSL.
 
Rated:
View ratings:
[VIEW]
View others Airports in Carinthia

Operational data

Special qualification required
Current time UTC:
Current local time:
Weather at : LOWK - Klagenfurt ( 13 km )
METAR: LOWK 202250Z AUTO VRB02KT 9999 NCD 02/M02 Q1016
TAF: TAF LOWK 201715Z 2018/2118 VRB03KT 9999 FEW050 TX10/2113Z TN01/2104Z PROB30 TEMPO 2110/2118 SHRA FEW055CB SCT060
View NOTAMs / SUP AIP / TFR affecting this airport [VIEW]
Communications frequencies: [VIEW]

Runways:

RWY identifierQFULength (ft)Width (ft)SurfaceLDA (ft)
0600UNK
2400UNK

Airport contact information

Address: District Sankt Veit An Der Glan Austria

Satellite view of LOKR